x

Destruction Island, Wa (desw1) Weather Station

10:00am - Sun 24th Sep 2017 All times are PDT. -7 hours from GMT.

  • Wind
    3mph, 5mph gusts
  • Air Temp 56°f
  • Sea Pressure 1021.5mb
  • Destruction Island, Wa
  • Destruction Island, Wa

More Historic Weather Station data

Upgrade to MSW Pro to gain access to the past 30 days of data for over 8000 Wavebouys and Weather Stations around the globe.

Join

Comparision Forecast

View Surf forecast
   
Sun 09/24 10:00am 3 5 mph 1021.5mb 56f
9:00am  -  1 mph 1021.4mb 55f
8:00am 7 7 mph 1021.4mb 54f
7:00am 3 3 mph 1020.8mb 55f
6:00am 10 10 mph 1020.8mb 55f
5:00am 11 11 mph 1020.3mb 53f
4:00am 5 6 mph 1020.6mb 53f
3:00am 8 9 mph 1020.9mb 53f
2:00am 3 5 mph 1020.9mb 54f
1:00am 2 3 mph 1020.7mb 54f
12:00am 6 7 mph 1020.7mb 55f
Sat 09/23 11:00pm 8 9 mph 1020.2mb 55f
10:00pm 3 3 mph 1020.2mb 56f
9:00pm 3 3 mph 1020.2mb 56f
8:00pm 5 5 mph 1019.8mb 57f
7:00pm 5 5 mph 1020mb 57f
6:00pm 3 3 mph 1019.8mb 57f
5:00pm 5 5 mph 1020mb 58f
4:00pm 6 6 mph 1020mb 59f
3:00pm 5 6 mph 1019.7mb 58f
2:00pm 8 9 mph 1019.8mb 59f
1:00pm 9 10 mph 1019.6mb 59f
12:00pm 10 11 mph 1019.3mb 58f
11:00am 9 11 mph 1019mb 58f
10:00am 7 7 mph 1019.2mb 57f
9:00am 8 9 mph 1018.5mb 55f
8:00am 5 6 mph 1018.3mb 55f
7:00am 3 3 mph 1018mb 55f
6:00am 6 7 mph 1017.4mb 55f
5:00am  -  2 mph 1017.4mb 54f
4:00am  -  1 mph 1017.3mb 54f
3:00am 6 6 mph 1017.5mb 54f
2:00am 5 6 mph 1017.7mb 54f
1:00am 3 3 mph 1018mb 55f
12:00am 3 3 mph 1017.8mb 54f
Fri 09/22 11:00pm 5 5 mph 1017.8mb 54f
10:00pm 2 3 mph 1017.7mb 54f
9:00pm 3 3 mph 1017.9mb 54f
8:00pm 2 3 mph 1018mb 54f
7:00pm 1 2 mph 1017.8mb 54f
6:00pm 2 2 mph 1017.7mb 54f
5:00pm  -  1 mph 1017.8mb 55f
4:00pm  -  2 mph 1017.9mb 55f
3:00pm 5 6 mph 1017.9mb 55f
2:00pm 6 6 mph 1017.9mb 57f
1:00pm 6 7 mph 1018.2mb 56f
12:00pm 5 7 mph 1018mb 56f
11:00am 3 5 mph 1018mb 55f
10:00am  -  1 mph 1018.2mb 55f
9:00am  -  0 mph 1017.9mb 54f
8:00am 3 3 mph 1017.4mb 51f
7:00am 6 7 mph 1017.4mb 50f
6:00am 5 5 mph 1017.2mb 50f
5:00am 2 3 mph 1016.9mb 50f
4:00am 7 8 mph 1016.9mb 50f
3:00am 10 11 mph 1016.7mb 50f
2:00am 13 14 mph 1016.9mb 50f
1:00am 8 9 mph 1016.8mb 53f
12:00am 5 6 mph 1016.8mb 52f
Thu 09/21 11:00pm 7 7 mph 1016.5mb 52f
10:00pm 7 7 mph 1016.3mb 53f
9:00pm 2 3 mph 1016.2mb 55f
8:00pm  -  1 mph 1015.6mb 55f
7:00pm 8 8 mph 1015.5mb 55f
6:00pm 9 9 mph 1015.1mb 55f
5:00pm 5 5 mph 1014.8mb 57f
4:00pm 5 5 mph 1014.6mb 56f
3:00pm 7 8 mph 1014.3mb 55f
2:00pm 5 6 mph 1014.1mb 56f
1:00pm 7 8 mph 1014mb 56f
12:00pm 6 7 mph 1013.8mb 57f
11:00am 3 6 mph 1013.6mb 55f
10:00am 1 2 mph 1013.2mb 56f
9:00am 6 7 mph 1012.6mb 53f
8:00am 7 7 mph 1012.4mb 50f
7:00am 5 5 mph 1012.2mb 50f
6:00am 10 11 mph 1011.5mb 50f
5:00am 5 6 mph 1011.3mb 50f
4:00am 6 7 mph 1011mb 50f
3:00am 8 9 mph 1010.8mb 50f
2:00am 9 9 mph 1010.7mb 50f
1:00am 3 5 mph 1010.4mb 51f
12:00am 8 8 mph 1010.2mb 51f
Wed 09/20 11:00pm 3 3 mph 1010.1mb 53f
10:00pm 2 3 mph 1010mb 54f
9:00pm 6 6 mph 1009.6mb 54f
8:00pm 9 10 mph 1009.3mb 54f
7:00pm 9 10 mph 1009mb 55f